22 mai 2022

Temps Code Temps Temp. Vue Des nuages Vent METAR/SPECI
01:00
V
2 °C 24 km - 270°   270° 5 kt METAR CYWG 220600Z 27005KT 15SM SCT079 02/M01 A3018 RMK AC3 SLP231
00:17
V
2 °C 24 km 7.900 ft 270°   270° 6 kt METAR CYWG 220517Z 27006KT 15SM BKN079 02/M01 A3017 RMK AC5 SLP230
00:00
V
4 °C 24 km 7.900 ft 260°   260° 6 kt METAR CYWG 220500Z 26006KT 15SM BKN079 04/M01 A3017 RMK AC6 SLP229

21 mai 2022

Temps Code Temps Temp. Vue Des nuages Vent METAR/SPECI
23:00
V
6 °C 24 km 7.800 ft 270°   270° 5 kt METAR CYWG 220400Z 27005KT 15SM BKN078 06/M00 A3017 RMK AC5 SLP227
22:00
V
6 °C 24 km 7.900 ft 270°   270° 6 kt METAR CYWG 220300Z 27006KT 15SM BKN079 06/01 A3016 RMK AC6 SLP224
21:00
V
8 °C 24 km 8.100 ft 310°   310° 6 kt METAR CYWG 220200Z 31006KT 15SM BKN081 08/M01 A3014 RMK AC5 SLP219
20:00
V
9 °C 24 km 8.500 ft 320°   320° 10 kt METAR CYWG 220100Z 32010KT 15SM FEW048 BKN085 BKN250 09/M01 A3013 RMK CU1AC4CI1 SLP215
19:00
V
10 °C 24 km 4.400 ft 330°   330° 12 kt METAR CYWG 220000Z CCA 33012KT 15SM BKN044 BKN083 10/M01 A3012 RMK SC5AC1 VIRGA N SLP212
18:00
V
9 °C 24 km 8.000 ft 310°   310° 8 kt METAR CYWG 212300Z 31008KT 15SM SCT044 BKN080 09/M02 A3013 RMK CU3AC3 VIRGA NNW SLP215
17:00
V
9 °C 24 km 4.200 ft 320°   320° 12 kt METAR CYWG 212200Z 32012KT 280V360 15SM BKN042 BKN069 09/M00 A3013 RMK CU6AC1 SLP215
16:00
V
9 °C 24 km 3.000 ft 320°   320° 8 kt METAR CYWG 212100Z 32008KT 15SM BKN030 BKN074 09/M00 A3014 RMK CU6AC1 SLP217
15:00
V
7 °C 24 km 3.900 ft 020°   020° 4 kt METAR CYWG 212000Z 02004KT 350V070 15SM BKN039 BKN072 07/M02 A3014 RMK SC6AC1 SLP217
14:00
V
7 °C 24 km 5.700 ft Var   Var 6 kt METAR CYWG 211900Z VRB06KT 15SM SCT035 OVC057 07/M01 A3014 RMK SC4SC4 SLP217
13:00
V
7 °C 24 km 4.200 ft 350°   350° 10 kt METAR CYWG 211800Z 35010KT 15SM BKN042 OVC050 07/M01 A3012 RMK SC7SC1 SLP212
12:00
V
5 °C 24 km 4.300 ft 340°   340° 9 kt METAR CYWG 211700Z 34009KT 15SM OVC043 05/M01 A3011 RMK SC8 SLP208
11:00
V
6 °C 24 km 3.900 ft 360°   360° 11 kt METAR CYWG 211600Z 36011KT 320V040 15SM BKN039 BKN063 06/M02 A3009 RMK CU7SC1 SC TR SLP203
10:00
M
4 °C 24 km 2.500 ft 360°   360° 10 17 kt METAR CYWG 211500Z 36010G17KT 15SM BKN025 BKN087 04/M00 A3009 RMK CU6AC1 AC TR SLP201
09:00
M
3 °C 24 km 1.000 ft 330°   330° 5 kt METAR CYWG 211400Z 33005KT 15SM BKN010 BKN021 03/01 A3008 RMK SC7CU1 CU TR SLP200
08:20
M
3 °C 24 km 1.300 ft 340°   340° 9 kt METAR CYWG 211320Z 34009KT 290V350 15SM -SHRA BKN013 OVC031TCU 03/M00 A3008 RMK SC5TCU3 SLP197
08:00
V
3 °C 24 km 3.500 ft 300°   300° 6 kt METAR CYWG 211300Z 30006KT 15SM BKN035 OVC090 03/M00 A3007 RMK SC6AC2 SLP195
07:00
V
2 °C 24 km 8.800 ft 310°   310° 6 kt METAR CYWG 211200Z 31006KT 15SM FEW050 OVC088 02/M01 A3005 RMK SC2AC6 SLP188
06:00
V
2 °C 24 km 9.000 ft 320°   320° 6 kt METAR CYWG 211100Z 32006KT 15SM SCT038 OVC090 02/M01 A3002 RMK SC3AC5 SLP179
05:00
V
2 °C 24 km 4.300 ft 320°   320° 8 kt METAR CYWG 211000Z 32008KT 15SM OVC043 02/M02 A3000 RMK SC8 SLP173
04:00
V
2 °C 24 km 4.600 ft 310°   310° 6 kt METAR CYWG 210900Z 31006KT 15SM OVC046 02/M02 A3000 RMK SC8 SLP170
03:00
V
2 °C 24 km 4.800 ft 300°   300° 6 kt METAR CYWG 210800Z 30006KT 15SM OVC048 02/M02 A2997 RMK SC8 SLP162
02:00
V
2 °C 24 km 4.500 ft 320°   320° 8 kt METAR CYWG 210700Z 32008KT 15SM OVC045 02/M03 A2996 RMK SC8 SLP159
01:00
V
2 °C 24 km 4.200 ft 330°   330° 7 kt METAR CYWG 210600Z 33007KT 15SM OVC042 02/M02 A2995 RMK SC8 SLP153
00:07
V
2 °C 24 km 3.800 ft 330°   330° 6 kt METAR CYWG 210507Z 33006KT 15SM OVC038 02/M02 A2993 RMK SC8 SLP149

20 mai 2022

Temps Code Temps Temp. Vue Des nuages Vent METAR/SPECI
23:00
V
3 °C 24 km 4.700 ft 350°   350° 9 16 kt METAR CYWG 210400Z 35009G16KT 15SM BKN047 03/M02 A2991 RMK SC7 SLP141
22:00
V
3 °C 24 km 4.300 ft 350°   350° 10 kt METAR CYWG 210300Z 35010KT 15SM OVC043 03/M02 A2989 RMK SC8 SLP133
21:00
V
3 °C 24 km 4.400 ft 340°   340° 11 17 kt METAR CYWG 210200Z 34011G17KT 15SM OVC044 03/M02 A2985 RMK SC8 SLP119
20:00
V
4 °C 24 km 3.600 ft 340°   340° 13 19 kt METAR CYWG 210100Z 34013G19KT 15SM OVC036 04/M02 A2982 RMK SC8 SLP109
19:00
V
5 °C 24 km 3.400 ft 340°   340° 14 kt METAR CYWG 210000Z 34014KT 15SM BKN034 05/M02 A2979 RMK SC7 SLP098
18:00
V
5 °C 24 km 3.600 ft 360°   360° 14 22 kt METAR CYWG 202300Z 36014G22KT 15SM OVC036 05/M02 A2976 RMK SC8 SLP088
17:00
V
5 °C 24 km 3.300 ft 350°   350° 19 25 kt METAR CYWG 202200Z 35019G25KT 15SM BKN033 05/M02 A2972 RMK SC7 SLP075
16:00
V
5 °C 24 km 3.300 ft 350°   350° 19 24 kt METAR CYWG 202100Z 35019G24KT 15SM BKN033 05/M01 A2968 RMK SC7 SLP062
15:00
M
5 °C 24 km 2.900 ft 360°   360° 22 kt METAR CYWG 202000Z 36022KT 15SM BKN029 OVC036 05/M00 A2964 RMK SC7SC1 SLP047
14:00
M
5 °C 24 km 2.700 ft 010°   010° 20 29 kt METAR CYWG 201900Z 01020G29KT 15SM BKN027 OVC038 05/M01 A2962 RMK SC6SC2 SLP040
13:00
M
5 °C 24 km 2.600 ft 350°   350° 20 29 kt METAR CYWG 201800Z 35020G29KT 15SM BKN026 OVC030 05/00 A2959 RMK SC7SC1 SLP029
12:00
M
4 °C 24 km 2.300 ft 350°   350° 23 29 kt METAR CYWG 201700Z 35023G29KT 15SM BKN023 OVC030 04/M00 A2954 RMK SC5SC3 SLP013
11:00
M
4 °C 24 km 1.800 ft 350°   350° 22 29 kt METAR CYWG 201600Z 35022G29KT 15SM BKN018 OVC026 04/00 A2950 RMK SC7SC1 SLP999
10:00
M
3 °C 24 km 1.300 ft 360°   360° 19 29 kt METAR CYWG 201500Z 36019G29KT 15SM BKN013 OVC028 03/01 A2947 RMK SC7SC1 SLP988
09:41
M
3 °C 24 km 1.800 ft 360°   360° 20 28 kt METAR CYWG 201441Z 36020G28KT 15SM BKN018 OVC034 03/01 A2945 RMK SC7SC1 SLP984
09:26
M
2 °C 13 km 1.400 ft 360°   360° 22 34 kt METAR CYWG 201426Z 36022G34KT 8SM -SN BKN014 OVC032 02/00 A2945 RMK SC6SC2 SLP983
09:00
M
3 °C 19 km 1.700 ft 360°   360° 21 30 kt METAR CYWG 201400Z 36021G30KT 12SM -RA BR BKN017 OVC026 03/00 A2943 RMK SC5SC3 SLP977
08:00
M
3 °C 16 km 1.200 ft 360°   360° 22 28 kt METAR CYWG 201300Z 36022G28KT 10SM -RA OVC012 03/02 A2940 RMK SF8 BR SLP964
07:00
M
4 °C 16 km 1.000 ft 010°   010° 22 29 kt METAR CYWG 201200Z 01022G29KT 10SM -RA OVC010 04/03 A2934 RMK SF8 /R08/ SLP946
06:00
I
3 °C 10 km 900 ft 010°   010° 26 36 kt METAR CYWG 201100Z 01026G36KT 6SM -RA BR OVC009 03/02 A2931 RMK SF8 SLP935
05:00
M
5 °C 10 km 1.800 ft 010°   010° 20 26 kt METAR CYWG 201000Z 01020G26KT 6SM -RA BR SCT010 OVC018 05/04 A2929 RMK SF4ST4 SLP927
04:00
M
6 °C 10 km 2.800 ft 030°   030° 23 32 kt METAR CYWG 200900Z 03023G32KT 6SM -RA BR SCT006 OVC028 06/04 A2926 RMK SF3SC5 SLP914
03:00
M
7 °C 10 km 1.400 ft 030°   030° 17 25 kt METAR CYWG 200800Z 03017G25KT 6SM -RA BR SCT005 OVC014 07/06 A2925 RMK SF4ST4 SLP912 DENSITY ALT 800FT
02:00
I
8 °C 10 km 700 ft 030°   030° 19 26 kt METAR CYWG 200700Z 03019G26KT 6SM RA BR OVC007 08/08 A2924 RMK SF8 SLP907 DENSITY ALT 900FT
01:00
I
8 °C 8,0 km 500 ft 040°   040° 16 kt METAR CYWG 200600Z 04016KT 5SM -RA BR OVC005 08/08 A2925 RMK SF8 /R022/ SLP911 DENSITY ALT 1000FT
00:44
I
8 °C 8,0 km 500 ft 030°   030° 12 18 kt METAR CYWG 200544Z 03012G18KT 5SM RA BR OVC005 08/08 A2926 RMK SF8 SLP914 DENSITY ALT 1000FT
00:00
I
9 °C 8,0 km 500 ft 030°   030° 12 17 kt METAR CYWG 200500Z 03012G17KT 5SM -RA BR OVC005 09/09 A2927 RMK SF8 SLP919 DENSITY ALT 1000FT

19 mai 2022

Temps Code Temps Temp. Vue Des nuages Vent METAR/SPECI
23:42
I
9 °C 10 km 500 ft 040°   040° 14 kt METAR CYWG 200442Z 04014KT 6SM -RA BR BKN005 OVC014 09/09 A2928 RMK SF6ST2 SLP921 DENSITY ALT 1000FT
Données plus anciennes

Télécharge notre application

Un accès facile à toute la météo aéronautique sur ton téléphone portable et ta tablette.
Avec de nombreuses fonctionnalités non disponibles sur le site Web, comme la prise en charge hors ligne et une liste personnelle d'aéroports.

Nous et des tiers suivons ton comportement sur Internet sur notre site Web à l'aide de cookies. Si tu continues, nous supposons que tu acceptes notre politique en matière de cookies. Apprendre plus